Terminal Aerodrome Forecast
Issued by NWS Sioux Falls, SD

Home | Current Version | Previous Version | Text Only | Print | Product List | Glossary On
Versions: 1 2 3 4 5 6 7 8 9 10 11 12 13 14 15 16
000
FTUS43 KFSD 170919 AAC
TAFFSD
TAF AMD
KFSD 170919Z 1709/1806 03007KT 3SM BR SCT010 BKN150
      TEMPO 1709/1713 1 1/2SM BR SCT003
     FM171300 03007KT 4SM BR SCT004 BKN120
     FM171600 36005KT P6SM SCT100
     FM180100 20004KT P6SM BKN100=

USA.gov is the U.S. government's official web portal to all federal, state and local government web resources and services.